createdAt,value
2023-05-24T00:00:37.867Z,22.48
2023-05-24T00:05:42.692Z,22.59
2023-05-24T00:10:47.729Z,22.68
2023-05-24T00:15:52.962Z,22.78
2023-05-24T00:20:58.480Z,22.90
2023-05-24T00:26:03.484Z,22.98
2023-05-24T00:31:09.714Z,23.12
2023-05-24T00:36:14.780Z,23.23
2023-05-24T00:41:19.810Z,23.35
2023-05-24T00:46:33.861Z,23.46
2023-05-24T00:51:39.726Z,23.58
2023-05-24T00:56:45.552Z,23.70
2023-05-24T01:01:50.628Z,23.83
2023-05-24T01:07:01.473Z,23.96
2023-05-24T01:12:17.579Z,24.07
2023-05-24T01:17:30.622Z,24.13
2023-05-24T01:22:57.184Z,24.23
2023-05-24T01:28:06.490Z,24.33
2023-05-24T01:33:12.413Z,24.44
2023-05-24T01:38:17.859Z,24.56
2023-05-24T01:43:42.348Z,24.69
2023-05-24T01:49:13.296Z,24.82
2023-05-24T01:54:22.310Z,24.95
2023-05-24T01:59:30.630Z,25.17
2023-05-24T02:04:35.920Z,25.30
2023-05-24T02:09:41.022Z,25.43
2023-05-24T02:14:46.937Z,25.50
2023-05-24T02:19:52.723Z,25.53
2023-05-24T02:24:57.761Z,25.65
2023-05-24T02:30:02.890Z,25.61
2023-05-24T02:35:08.821Z,25.59
2023-05-24T02:40:15.492Z,25.60
2023-05-24T02:45:20.530Z,25.74
2023-05-24T02:50:25.555Z,25.91
2023-05-24T02:55:30.646Z,26.04
2023-05-24T03:00:34.868Z,26.04
2023-05-24T03:05:40.028Z,26.03
2023-05-24T03:10:46.763Z,26.06
2023-05-24T03:15:52.991Z,26.13
2023-05-24T03:20:58.310Z,26.15
2023-05-24T03:26:03.511Z,26.18
2023-05-24T03:31:09.199Z,26.27
2023-05-24T03:36:15.802Z,26.35
2023-05-24T03:41:22.091Z,26.42
2023-05-24T03:46:26.460Z,26.52
2023-05-24T03:51:32.755Z,26.58
2023-05-24T03:56:39.702Z,26.59
2023-05-24T04:01:47.206Z,26.68
2023-05-24T04:06:52.932Z,26.80
2023-05-24T04:11:57.801Z,26.89
2023-05-24T04:17:06.027Z,26.86
2023-05-24T04:22:11.020Z,26.83
2023-05-24T04:27:16.340Z,26.93
2023-05-24T04:32:21.447Z,27.07
2023-05-24T04:37:26.889Z,27.12
2023-05-24T04:42:33.210Z,27.15
2023-05-24T04:47:38.539Z,27.15
2023-05-24T04:52:43.549Z,27.12
2023-05-24T04:57:48.778Z,27.17
2023-05-24T05:02:53.766Z,27.25
2023-05-24T05:07:58.465Z,27.34
2023-05-24T05:13:03.568Z,27.39
2023-05-24T05:18:08.461Z,27.49
2023-05-24T05:23:13.190Z,27.60
2023-05-24T05:28:18.650Z,27.62
2023-05-24T05:33:24.706Z,27.60
2023-05-24T05:38:29.855Z,27.54
2023-05-24T05:43:35.001Z,27.54
2023-05-24T05:48:40.780Z,27.53
2023-05-24T05:53:45.699Z,27.53
2023-05-24T05:58:50.653Z,27.57
2023-05-24T06:03:55.566Z,27.67
2023-05-24T06:09:01.718Z,27.74
2023-05-24T06:14:06.861Z,27.72
2023-05-24T06:19:11.977Z,27.70
2023-05-24T06:24:21.792Z,27.62
2023-05-24T06:29:26.847Z,27.62
2023-05-24T06:34:31.754Z,27.56
2023-05-24T06:39:36.761Z,27.51
2023-05-24T06:44:41.858Z,27.47
2023-05-24T06:49:46.804Z,27.53
2023-05-24T06:54:52.267Z,27.55
2023-05-24T06:59:58.039Z,27.51
2023-05-24T07:05:03.639Z,27.51
2023-05-24T07:10:12.632Z,27.61
2023-05-24T07:15:17.557Z,27.58
2023-05-24T07:20:22.896Z,27.62
2023-05-24T07:25:27.947Z,27.57
2023-05-24T07:30:33.103Z,27.52
2023-05-24T07:35:38.298Z,27.41
2023-05-24T07:40:43.780Z,27.32
2023-05-24T07:45:48.948Z,27.23
2023-05-24T07:50:54.254Z,27.15
2023-05-24T07:55:59.037Z,27.06
2023-05-24T08:01:04.165Z,27.00
2023-05-24T08:06:10.159Z,26.94
2023-05-24T08:11:15.198Z,26.83
2023-05-24T08:16:21.015Z,26.78
2023-05-24T08:21:25.993Z,26.68
2023-05-24T08:26:31.162Z,26.61
2023-05-24T08:31:36.250Z,26.53
2023-05-24T08:36:43.553Z,26.44
2023-05-24T08:42:00.872Z,26.38
2023-05-24T08:47:13.629Z,26.31
2023-05-24T08:52:19.198Z,26.24
2023-05-24T08:57:25.197Z,26.15
2023-05-24T09:02:32.108Z,26.07
2023-05-24T09:07:37.195Z,26.03
2023-05-24T09:12:47.238Z,25.96
2023-05-24T09:17:52.657Z,25.90
2023-05-24T09:22:58.801Z,25.84
2023-05-24T09:28:09.767Z,25.80
2023-05-24T09:33:14.881Z,25.76
2023-05-24T09:38:21.408Z,25.72
2023-05-24T09:43:28.170Z,25.63
2023-05-24T09:48:34.397Z,25.53
2023-05-24T09:53:39.877Z,24.98
2023-05-24T09:58:44.284Z,24.63
2023-05-24T10:03:56.756Z,24.05
2023-05-24T10:09:03.586Z,23.46
2023-05-24T10:14:10.947Z,23.02
2023-05-24T10:19:15.857Z,22.69
2023-05-24T10:24:25.545Z,22.47
2023-05-24T10:29:35.547Z,22.29
2023-05-24T10:34:42.605Z,22.04
2023-05-24T10:39:48.051Z,21.84
2023-05-24T10:44:53.532Z,21.72
2023-05-24T10:50:06.092Z,21.72
2023-05-24T10:55:12.910Z,21.73
2023-05-24T11:00:35.194Z,21.70
2023-05-24T11:05:52.180Z,21.72
2023-05-24T11:16:55.428Z,21.71
2023-05-24T11:22:01.362Z,21.72
2023-05-24T11:27:07.560Z,21.83
2023-05-24T11:32:16.969Z,21.80
2023-05-24T11:37:31.538Z,21.73
2023-05-24T11:42:45.556Z,21.72
2023-05-24T11:47:51.642Z,21.68
2023-05-24T11:52:57.094Z,21.65
2023-05-24T11:58:03.817Z,21.66
2023-05-24T12:03:14.650Z,21.61
2023-05-24T12:08:19.799Z,21.59
2023-05-24T12:13:25.702Z,21.51
2023-05-24T12:18:31.480Z,21.49
2023-05-24T12:23:38.537Z,21.45
2023-05-24T12:28:43.742Z,21.44
2023-05-24T12:33:51.613Z,21.40
2023-05-24T12:39:01.883Z,21.41
2023-05-24T12:44:09.095Z,21.37
2023-05-24T12:49:14.052Z,21.33
2023-05-24T12:54:24.817Z,21.30
2023-05-24T12:59:30.687Z,21.27
2023-05-24T13:04:37.413Z,21.25
2023-05-24T13:09:42.570Z,21.20
2023-05-24T13:14:49.572Z,21.16
2023-05-24T13:19:56.874Z,21.15
2023-05-24T13:25:02.941Z,21.14
2023-05-24T13:30:09.078Z,21.17
2023-05-24T13:35:14.494Z,21.16
2023-05-24T13:40:20.005Z,21.17
2023-05-24T13:45:25.935Z,21.13
2023-05-24T13:50:35.022Z,21.10
2023-05-24T13:55:40.319Z,21.08
2023-05-24T14:00:45.880Z,21.04
2023-05-24T14:05:51.226Z,21.01
2023-05-24T14:11:00.051Z,20.99
2023-05-24T14:16:06.869Z,20.92
2023-05-24T14:21:11.665Z,20.91
2023-05-24T14:26:17.129Z,20.84
2023-05-24T14:31:22.822Z,20.82
2023-05-24T14:36:28.240Z,20.84
2023-05-24T14:41:34.099Z,20.90
2023-05-24T14:46:39.515Z,20.94
2023-05-24T14:51:47.279Z,20.96
2023-05-24T14:56:52.618Z,20.99
2023-05-24T15:01:58.058Z,21.01
2023-05-24T15:07:03.573Z,21.02
2023-05-24T15:12:09.954Z,21.00
2023-05-24T15:17:15.399Z,21.03
2023-05-24T15:22:20.474Z,21.05
2023-05-24T15:27:25.957Z,21.06
2023-05-24T15:32:31.615Z,21.04
2023-05-24T15:37:37.141Z,21.05
2023-05-24T15:42:43.463Z,21.05
2023-05-24T15:47:49.229Z,21.04
2023-05-24T15:52:54.982Z,21.04
2023-05-24T15:58:00.631Z,21.02
2023-05-24T16:03:06.349Z,20.94
2023-05-24T16:08:11.851Z,20.93
2023-05-24T16:13:17.429Z,20.92
2023-05-24T16:18:28.397Z,20.88
2023-05-24T16:23:34.129Z,20.88
2023-05-24T16:28:39.683Z,20.86
2023-05-24T16:33:45.801Z,20.81
2023-05-24T16:38:51.189Z,20.75
2023-05-24T16:43:57.138Z,20.74
2023-05-24T16:49:02.618Z,20.74
2023-05-24T16:54:09.701Z,20.72
2023-05-24T16:59:15.107Z,20.69
2023-05-24T17:04:20.946Z,20.68
2023-05-24T17:09:26.625Z,20.68
2023-05-24T17:14:32.797Z,20.68
2023-05-24T17:19:38.366Z,20.66
2023-05-24T17:24:43.833Z,20.64
2023-05-24T17:29:49.124Z,20.62
2023-05-24T17:34:54.627Z,20.60
2023-05-24T17:39:59.997Z,20.61
2023-05-24T17:45:06.209Z,20.59
2023-05-24T17:50:12.288Z,20.58
2023-05-24T17:55:17.894Z,20.58
2023-05-24T18:00:23.563Z,20.54
2023-05-24T18:05:29.294Z,20.52
2023-05-24T18:10:34.931Z,20.48
2023-05-24T18:15:40.335Z,20.46
2023-05-24T18:20:45.922Z,20.43
2023-05-24T18:25:51.389Z,20.38
2023-05-24T18:31:17.211Z,20.30
2023-05-24T18:36:23.241Z,20.20
2023-05-24T18:41:28.706Z,20.11
2023-05-24T18:46:34.913Z,20.02
2023-05-24T18:51:40.337Z,19.96
2023-05-24T18:56:47.033Z,19.90
2023-05-24T19:01:54.288Z,19.85
2023-05-24T19:07:01.437Z,19.79
2023-05-24T19:12:07.401Z,19.75
2023-05-24T19:17:12.971Z,19.70
2023-05-24T19:22:18.585Z,19.63
2023-05-24T19:27:24.445Z,19.60
2023-05-24T19:32:30.098Z,19.58
2023-05-24T19:37:35.791Z,19.55
2023-05-24T19:42:41.257Z,19.49
2023-05-24T19:47:47.114Z,19.48
2023-05-24T19:52:52.602Z,19.45
2023-05-24T19:57:58.127Z,19.43
2023-05-24T20:03:03.790Z,19.42
2023-05-24T20:08:09.491Z,19.39
2023-05-24T20:13:14.425Z,19.36
2023-05-24T20:18:19.893Z,19.30
2023-05-24T20:23:29.401Z,19.26
2023-05-24T20:28:35.005Z,19.25
2023-05-24T20:33:41.151Z,19.22
2023-05-24T20:38:46.833Z,19.20
2023-05-24T20:43:52.668Z,19.19
2023-05-24T20:48:58.560Z,19.25
2023-05-24T20:54:05.801Z,19.22
2023-05-24T20:59:11.894Z,19.18
2023-05-24T21:04:17.560Z,19.14
2023-05-24T21:09:23.354Z,19.08
2023-05-24T21:14:29.036Z,19.16
2023-05-24T21:19:34.584Z,19.12
2023-05-24T21:24:40.015Z,19.06
2023-05-24T21:29:45.730Z,19.03
2023-05-24T21:34:51.267Z,18.97
2023-05-24T21:39:56.957Z,18.96
2023-05-24T21:45:02.281Z,18.93
2023-05-24T21:50:09.647Z,18.94
2023-05-24T21:55:15.346Z,18.96
2023-05-24T22:00:24.389Z,18.97
2023-05-24T22:05:30.035Z,19.00
2023-05-24T22:10:36.147Z,19.01
2023-05-24T22:15:43.269Z,19.02
2023-05-24T22:20:48.255Z,19.06
2023-05-24T22:25:53.928Z,19.06
2023-05-24T22:31:00.310Z,19.11
2023-05-24T22:36:06.543Z,19.16
2023-05-24T22:41:12.174Z,19.20
2023-05-24T22:46:17.917Z,19.22
2023-05-24T22:51:24.220Z,19.18
2023-05-24T22:56:30.756Z,19.22
2023-05-24T23:01:37.139Z,19.24
2023-05-24T23:06:43.056Z,19.29
2023-05-24T23:11:48.359Z,19.36
2023-05-24T23:16:53.617Z,19.43
2023-05-24T23:21:59.120Z,19.49
2023-05-24T23:27:04.646Z,19.51
2023-05-24T23:32:11.023Z,19.64
2023-05-24T23:37:15.836Z,19.76
2023-05-24T23:42:20.985Z,19.88
2023-05-24T23:47:26.468Z,20.03
2023-05-24T23:52:32.984Z,20.17
2023-05-24T23:57:43.292Z,20.30
